Terminal Aerodrome Forecast
Issued by NWS Spokane, WA

Home | Current Version | Previous Version | Text Only | Print | Product List | Glossary On
Versions: 1 2 3 4 5 6 7 8 9 10 11 12 13 14 15 16 17 18 19 20 21 22 23
000
FTUS46 KOTX 302321
TAFGEG
TAF
KGEG 302321Z 0100/0124 24014G22KT P6SM -SHRA VCTS BKN060CB OVC080
      TEMPO 0100/0102 VRB20G30KT -TSRA
     FM010200 25010KT P6SM SCT070 BKN120
     FM010900 18007KT P6SM SKC
     FM011200 19007KT P6SM SCT015
     FM011900 22014G22KT P6SM FEW150=

USA.gov is the U.S. government's official web portal to all federal, state and local government web resources and services.